sensor_id;sensor_type;location;lat;lon;timestamp;temperature;humidity
64715;DHT22;51144;53.002;6.506;2022-07-29T00:00:05;15.30;99.90
64715;DHT22;51144;53.002;6.506;2022-07-29T00:02:31;15.20;99.90
64715;DHT22;51144;53.002;6.506;2022-07-29T00:04:57;15.30;99.90
64715;DHT22;51144;53.002;6.506;2022-07-29T00:07:23;15.30;99.90
64715;DHT22;51144;53.002;6.506;2022-07-29T00:09:49;15.20;99.90
64715;DHT22;51144;53.002;6.506;2022-07-29T00:12:14;15.20;99.90
64715;DHT22;51144;53.002;6.506;2022-07-29T00:14:40;15.20;99.90
64715;DHT22;51144;53.002;6.506;2022-07-29T00:17:06;15.20;99.90
64715;DHT22;51144;53.002;6.506;2022-07-29T00:19:34;15.20;99.90
64715;DHT22;51144;53.002;6.506;2022-07-29T00:22:00;15.20;99.90
64715;DHT22;51144;53.002;6.506;2022-07-29T00:24:26;15.20;99.90
64715;DHT22;51144;53.002;6.506;2022-07-29T00:26:52;15.20;99.90
64715;DHT22;51144;53.002;6.506;2022-07-29T00:29:17;15.20;99.90
64715;DHT22;51144;53.002;6.506;2022-07-29T00:31:43;15.20;99.90
64715;DHT22;51144;53.002;6.506;2022-07-29T00:34:08;15.20;99.90
64715;DHT22;51144;53.002;6.506;2022-07-29T00:36:54;15.20;99.90
64715;DHT22;51144;53.002;6.506;2022-07-29T00:39:19;15.20;99.90
64715;DHT22;51144;53.002;6.506;2022-07-29T00:41:45;15.10;99.90
64715;DHT22;51144;53.002;6.506;2022-07-29T00:44:10;15.10;99.90
64715;DHT22;51144;53.002;6.506;2022-07-29T00:46:36;15.10;99.90
64715;DHT22;51144;53.002;6.506;2022-07-29T00:49:05;15.20;99.90
64715;DHT22;51144;53.002;6.506;2022-07-29T00:51:33;15.10;99.90
64715;DHT22;51144;53.002;6.506;2022-07-29T00:53:59;15.10;99.90
64715;DHT22;51144;53.002;6.506;2022-07-29T00:56:25;15.10;99.90
64715;DHT22;51144;53.002;6.506;2022-07-29T00:58:50;15.10;99.90
64715;DHT22;51144;53.002;6.506;2022-07-29T01:01:16;15.10;99.90
64715;DHT22;51144;53.002;6.506;2022-07-29T01:03:42;15.10;99.90
64715;DHT22;51144;53.002;6.506;2022-07-29T01:06:08;15.00;99.90
64715;DHT22;51144;53.002;6.506;2022-07-29T01:08:35;15.00;99.90
64715;DHT22;51144;53.002;6.506;2022-07-29T01:11:02;15.00;99.90
64715;DHT22;51144;53.002;6.506;2022-07-29T01:13:28;15.00;99.90
64715;DHT22;51144;53.002;6.506;2022-07-29T01:15:59;15.00;99.90
64715;DHT22;51144;53.002;6.506;2022-07-29T01:18:34;15.00;99.90
64715;DHT22;51144;53.002;6.506;2022-07-29T01:21:22;15.00;99.90
64715;DHT22;51144;53.002;6.506;2022-07-29T01:29:17;15.00;99.90
64715;DHT22;51144;53.002;6.506;2022-07-29T01:31:57;15.00;99.90
64715;DHT22;51144;53.002;6.506;2022-07-29T01:34:29;15.00;99.90
64715;DHT22;51144;53.002;6.506;2022-07-29T01:37:22;15.00;99.90
64715;DHT22;51144;53.002;6.506;2022-07-29T01:39:51;15.00;99.90
64715;DHT22;51144;53.002;6.506;2022-07-29T01:42:30;15.00;99.90
64715;DHT22;51144;53.002;6.506;2022-07-29T01:45:02;15.00;99.90
64715;DHT22;51144;53.002;6.506;2022-07-29T01:47:53;15.00;99.90
64715;DHT22;51144;53.002;6.506;2022-07-29T01:50:20;14.90;99.90
64715;DHT22;51144;53.002;6.506;2022-07-29T01:52:59;14.90;99.90
64715;DHT22;51144;53.002;6.506;2022-07-29T01:55:31;14.90;99.90
64715;DHT22;51144;53.002;6.506;2022-07-29T01:57:58;14.90;99.90
64715;DHT22;51144;53.002;6.506;2022-07-29T02:00:26;14.90;99.90
64715;DHT22;51144;53.002;6.506;2022-07-29T02:02:53;14.90;99.90
64715;DHT22;51144;53.002;6.506;2022-07-29T02:05:21;14.90;99.90
64715;DHT22;51144;53.002;6.506;2022-07-29T02:07:49;14.90;99.90
64715;DHT22;51144;53.002;6.506;2022-07-29T02:10:19;14.90;99.90
64715;DHT22;51144;53.002;6.506;2022-07-29T02:12:46;14.90;99.90
64715;DHT22;51144;53.002;6.506;2022-07-29T02:15:14;14.90;99.90
64715;DHT22;51144;53.002;6.506;2022-07-29T02:17:45;14.90;99.90
64715;DHT22;51144;53.002;6.506;2022-07-29T02:20:16;14.90;99.90
64715;DHT22;51144;53.002;6.506;2022-07-29T02:22:44;15.00;99.90
64715;DHT22;51144;53.002;6.506;2022-07-29T02:25:11;14.90;99.90
64715;DHT22;51144;53.002;6.506;2022-07-29T02:27:38;15.00;99.90
64715;DHT22;51144;53.002;6.506;2022-07-29T02:30:06;15.00;99.90
64715;DHT22;51144;53.002;6.506;2022-07-29T02:32:34;15.00;99.90
64715;DHT22;51144;53.002;6.506;2022-07-29T02:35:01;15.00;99.90
64715;DHT22;51144;53.002;6.506;2022-07-29T02:37:27;15.00;99.90
64715;DHT22;51144;53.002;6.506;2022-07-29T02:39:55;15.00;99.90
64715;DHT22;51144;53.002;6.506;2022-07-29T02:42:23;15.00;99.90
64715;DHT22;51144;53.002;6.506;2022-07-29T02:44:49;15.10;99.90
64715;DHT22;51144;53.002;6.506;2022-07-29T02:47:36;15.10;99.90
64715;DHT22;51144;53.002;6.506;2022-07-29T02:52:37;15.10;99.90
64715;DHT22;51144;53.002;6.506;2022-07-29T02:55:30;15.10;99.90
64715;DHT22;51144;53.002;6.506;2022-07-29T03:00:28;15.10;99.90
64715;DHT22;51144;53.002;6.506;2022-07-29T03:02:58;15.10;99.90
64715;DHT22;51144;53.002;6.506;2022-07-29T03:05:24;15.10;99.90
64715;DHT22;51144;53.002;6.506;2022-07-29T03:07:58;15.10;99.90
64715;DHT22;51144;53.002;6.506;2022-07-29T03:10:28;15.20;99.90
64715;DHT22;51144;53.002;6.506;2022-07-29T03:12:55;15.10;99.90
64715;DHT22;51144;53.002;6.506;2022-07-29T03:15:22;15.10;99.90
64715;DHT22;51144;53.002;6.506;2022-07-29T03:17:49;15.10;99.90
64715;DHT22;51144;53.002;6.506;2022-07-29T03:20:14;15.10;99.90
64715;DHT22;51144;53.002;6.506;2022-07-29T03:22:41;15.10;99.90
64715;DHT22;51144;53.002;6.506;2022-07-29T03:25:15;15.20;99.90
64715;DHT22;51144;53.002;6.506;2022-07-29T03:27:41;15.10;99.90
64715;DHT22;51144;53.002;6.506;2022-07-29T03:30:08;15.10;99.90
64715;DHT22;51144;53.002;6.506;2022-07-29T03:32:35;15.10;99.90
64715;DHT22;51144;53.002;6.506;2022-07-29T03:35:00;15.10;99.90
64715;DHT22;51144;53.002;6.506;2022-07-29T03:37:27;15.10;99.90
64715;DHT22;51144;53.002;6.506;2022-07-29T03:39:55;15.10;99.90
64715;DHT22;51144;53.002;6.506;2022-07-29T03:42:27;15.10;99.90
64715;DHT22;51144;53.002;6.506;2022-07-29T03:44:54;15.10;99.90
64715;DHT22;51144;53.002;6.506;2022-07-29T03:47:24;15.10;99.90
64715;DHT22;51144;53.002;6.506;2022-07-29T03:49:59;15.10;99.90
64715;DHT22;51144;53.002;6.506;2022-07-29T03:52:25;15.10;99.90
64715;DHT22;51144;53.002;6.506;2022-07-29T03:54:51;15.00;99.90
64715;DHT22;51144;53.002;6.506;2022-07-29T03:57:19;15.10;99.90
64715;DHT22;51144;53.002;6.506;2022-07-29T03:59:45;15.00;99.90
64715;DHT22;51144;53.002;6.506;2022-07-29T04:02:12;15.00;99.90
64715;DHT22;51144;53.002;6.506;2022-07-29T04:04:38;15.00;99.90
64715;DHT22;51144;53.002;6.506;2022-07-29T04:07:07;15.00;99.90
64715;DHT22;51144;53.002;6.506;2022-07-29T04:09:36;15.00;99.90
64715;DHT22;51144;53.002;6.506;2022-07-29T04:12:02;15.00;99.90
64715;DHT22;51144;53.002;6.506;2022-07-29T04:14:27;15.00;99.90
64715;DHT22;51144;53.002;6.506;2022-07-29T04:16:53;15.00;99.90
64715;DHT22;51144;53.002;6.506;2022-07-29T04:19:18;15.00;99.90
64715;DHT22;51144;53.002;6.506;2022-07-29T04:21:44;15.00;99.90
64715;DHT22;51144;53.002;6.506;2022-07-29T04:24:10;15.00;99.90
64715;DHT22;51144;53.002;6.506;2022-07-29T04:26:36;15.00;99.90
64715;DHT22;51144;53.002;6.506;2022-07-29T04:29:02;15.00;99.90
64715;DHT22;51144;53.002;6.506;2022-07-29T04:31:27;15.00;99.90
64715;DHT22;51144;53.002;6.506;2022-07-29T04:33:53;15.00;99.90
64715;DHT22;51144;53.002;6.506;2022-07-29T04:36:18;15.00;99.90
64715;DHT22;51144;53.002;6.506;2022-07-29T04:38:44;15.00;99.90
64715;DHT22;51144;53.002;6.506;2022-07-29T04:41:10;15.00;99.90
64715;DHT22;51144;53.002;6.506;2022-07-29T04:43:35;15.00;99.90
64715;DHT22;51144;53.002;6.506;2022-07-29T04:46:02;15.00;99.90
64715;DHT22;51144;53.002;6.506;2022-07-29T04:48:28;15.10;99.90
64715;DHT22;51144;53.002;6.506;2022-07-29T04:50:53;15.00;99.90
64715;DHT22;51144;53.002;6.506;2022-07-29T04:53:19;15.10;99.90
64715;DHT22;51144;53.002;6.506;2022-07-29T04:55:44;15.10;99.90
64715;DHT22;51144;53.002;6.506;2022-07-29T04:58:11;15.10;99.90
64715;DHT22;51144;53.002;6.506;2022-07-29T05:00:36;15.10;99.90
64715;DHT22;51144;53.002;6.506;2022-07-29T05:03:03;15.10;99.90
64715;DHT22;51144;53.002;6.506;2022-07-29T05:05:28;15.10;99.90
64715;DHT22;51144;53.002;6.506;2022-07-29T05:08:03;15.20;99.90
64715;DHT22;51144;53.002;6.506;2022-07-29T05:10:29;15.20;99.90
64715;DHT22;51144;53.002;6.506;2022-07-29T05:12:54;15.20;99.90
64715;DHT22;51144;53.002;6.506;2022-07-29T05:15:20;15.20;99.90
64715;DHT22;51144;53.002;6.506;2022-07-29T05:17:45;15.20;99.90
64715;DHT22;51144;53.002;6.506;2022-07-29T05:20:11;15.20;99.90
64715;DHT22;51144;53.002;6.506;2022-07-29T05:22:36;15.20;99.90
64715;DHT22;51144;53.002;6.506;2022-07-29T05:25:02;15.30;99.90
64715;DHT22;51144;53.002;6.506;2022-07-29T05:27:28;15.30;99.90
64715;DHT22;51144;53.002;6.506;2022-07-29T05:29:54;15.30;99.90
64715;DHT22;51144;53.002;6.506;2022-07-29T05:32:22;15.30;99.90
64715;DHT22;51144;53.002;6.506;2022-07-29T05:34:47;15.40;99.90
64715;DHT22;51144;53.002;6.506;2022-07-29T05:37:13;15.40;99.90
64715;DHT22;51144;53.002;6.506;2022-07-29T05:39:39;15.50;99.90
64715;DHT22;51144;53.002;6.506;2022-07-29T05:42:11;15.60;99.90
64715;DHT22;51144;53.002;6.506;2022-07-29T05:44:39;15.70;99.90
64715;DHT22;51144;53.002;6.506;2022-07-29T05:47:05;15.70;99.90
64715;DHT22;51144;53.002;6.506;2022-07-29T05:49:32;15.80;99.90
64715;DHT22;51144;53.002;6.506;2022-07-29T05:51:58;15.80;99.90
64715;DHT22;51144;53.002;6.506;2022-07-29T05:54:24;15.90;99.90
64715;DHT22;51144;53.002;6.506;2022-07-29T05:56:50;15.90;99.90
64715;DHT22;51144;53.002;6.506;2022-07-29T05:59:15;16.00;99.90
64715;DHT22;51144;53.002;6.506;2022-07-29T06:01:41;16.00;99.90
64715;DHT22;51144;53.002;6.506;2022-07-29T06:04:07;15.90;99.90
64715;DHT22;51144;53.002;6.506;2022-07-29T06:06:33;15.90;99.90
64715;DHT22;51144;53.002;6.506;2022-07-29T06:09:00;15.90;99.90
64715;DHT22;51144;53.002;6.506;2022-07-29T06:11:25;16.00;99.90
64715;DHT22;51144;53.002;6.506;2022-07-29T06:13:51;16.10;99.90
64715;DHT22;51144;53.002;6.506;2022-07-29T06:16:16;16.20;99.90
64715;DHT22;51144;53.002;6.506;2022-07-29T06:18:42;16.20;99.90
64715;DHT22;51144;53.002;6.506;2022-07-29T06:21:08;16.30;99.90
64715;DHT22;51144;53.002;6.506;2022-07-29T06:23:38;16.30;99.90
64715;DHT22;51144;53.002;6.506;2022-07-29T06:26:04;16.30;99.90
64715;DHT22;51144;53.002;6.506;2022-07-29T06:28:30;16.40;99.90
64715;DHT22;51144;53.002;6.506;2022-07-29T06:30:56;16.40;99.90
64715;DHT22;51144;53.002;6.506;2022-07-29T06:33:21;16.50;99.90
64715;DHT22;51144;53.002;6.506;2022-07-29T06:35:47;16.50;99.90
64715;DHT22;51144;53.002;6.506;2022-07-29T06:38:14;16.60;99.90
64715;DHT22;51144;53.002;6.506;2022-07-29T06:40:44;16.60;99.90
64715;DHT22;51144;53.002;6.506;2022-07-29T06:43:29;16.70;99.90
64715;DHT22;51144;53.002;6.506;2022-07-29T06:46:01;16.80;99.90
64715;DHT22;51144;53.002;6.506;2022-07-29T06:48:28;16.80;99.90
64715;DHT22;51144;53.002;6.506;2022-07-29T06:50:54;16.90;99.90
64715;DHT22;51144;53.002;6.506;2022-07-29T06:53:19;16.90;99.90
64715;DHT22;51144;53.002;6.506;2022-07-29T06:55:45;16.90;99.90
64715;DHT22;51144;53.002;6.506;2022-07-29T06:58:11;17.00;99.90
64715;DHT22;51144;53.002;6.506;2022-07-29T07:00:37;17.10;99.90
64715;DHT22;51144;53.002;6.506;2022-07-29T07:03:03;17.10;99.90
64715;DHT22;51144;53.002;6.506;2022-07-29T07:05:28;17.20;99.90
64715;DHT22;51144;53.002;6.506;2022-07-29T07:07:57;17.20;99.90
64715;DHT22;51144;53.002;6.506;2022-07-29T07:10:22;17.30;99.90
64715;DHT22;51144;53.002;6.506;2022-07-29T07:12:48;17.40;99.90
64715;DHT22;51144;53.002;6.506;2022-07-29T07:15:14;17.50;99.90
64715;DHT22;51144;53.002;6.506;2022-07-29T07:17:45;17.50;99.90
64715;DHT22;51144;53.002;6.506;2022-07-29T07:20:14;17.60;99.90
64715;DHT22;51144;53.002;6.506;2022-07-29T07:22:40;17.50;99.90
64715;DHT22;51144;53.002;6.506;2022-07-29T07:25:06;17.40;99.90
64715;DHT22;51144;53.002;6.506;2022-07-29T07:27:34;17.40;99.90
64715;DHT22;51144;53.002;6.506;2022-07-29T07:30:02;17.40;99.90
64715;DHT22;51144;53.002;6.506;2022-07-29T07:32:28;17.30;99.90
64715;DHT22;51144;53.002;6.506;2022-07-29T07:34:54;17.30;99.90
64715;DHT22;51144;53.002;6.506;2022-07-29T07:37:19;17.30;99.90
64715;DHT22;51144;53.002;6.506;2022-07-29T07:39:46;17.30;99.90
64715;DHT22;51144;53.002;6.506;2022-07-29T07:42:11;17.30;99.90
64715;DHT22;51144;53.002;6.506;2022-07-29T07:44:39;17.20;99.90
64715;DHT22;51144;53.002;6.506;2022-07-29T07:47:05;17.20;99.90
64715;DHT22;51144;53.002;6.506;2022-07-29T07:49:30;17.20;99.90
64715;DHT22;51144;53.002;6.506;2022-07-29T07:51:56;17.20;99.90
64715;DHT22;51144;53.002;6.506;2022-07-29T07:54:22;17.30;99.90
64715;DHT22;51144;53.002;6.506;2022-07-29T07:56:47;17.30;99.90
64715;DHT22;51144;53.002;6.506;2022-07-29T07:59:16;17.40;99.90
64715;DHT22;51144;53.002;6.506;2022-07-29T08:01:42;17.40;99.90
64715;DHT22;51144;53.002;6.506;2022-07-29T08:04:08;17.50;99.90
64715;DHT22;51144;53.002;6.506;2022-07-29T08:06:34;17.60;99.90
64715;DHT22;51144;53.002;6.506;2022-07-29T08:09:02;17.80;99.90
64715;DHT22;51144;53.002;6.506;2022-07-29T08:11:27;17.80;99.90
64715;DHT22;51144;53.002;6.506;2022-07-29T08:13:54;17.90;99.90
64715;DHT22;51144;53.002;6.506;2022-07-29T08:16:20;17.90;99.90
64715;DHT22;51144;53.002;6.506;2022-07-29T08:18:46;17.90;99.90
64715;DHT22;51144;53.002;6.506;2022-07-29T08:21:13;17.90;99.90
64715;DHT22;51144;53.002;6.506;2022-07-29T08:23:39;17.90;99.90
64715;DHT22;51144;53.002;6.506;2022-07-29T08:26:10;17.90;99.90
64715;DHT22;51144;53.002;6.506;2022-07-29T08:28:41;17.90;99.90
64715;DHT22;51144;53.002;6.506;2022-07-29T08:31:11;18.00;99.90
64715;DHT22;51144;53.002;6.506;2022-07-29T08:33:37;18.10;99.90
64715;DHT22;51144;53.002;6.506;2022-07-29T08:36:03;18.30;99.90
64715;DHT22;51144;53.002;6.506;2022-07-29T08:38:28;18.40;99.90
64715;DHT22;51144;53.002;6.506;2022-07-29T08:40:59;18.50;99.90
64715;DHT22;51144;53.002;6.506;2022-07-29T08:43:25;18.50;99.90
64715;DHT22;51144;53.002;6.506;2022-07-29T08:45:51;18.70;99.90
64715;DHT22;51144;53.002;6.506;2022-07-29T08:48:24;18.70;99.90
64715;DHT22;51144;53.002;6.506;2022-07-29T08:50:54;18.70;99.90
64715;DHT22;51144;53.002;6.506;2022-07-29T08:53:21;18.80;99.90
64715;DHT22;51144;53.002;6.506;2022-07-29T08:55:48;18.80;99.90
64715;DHT22;51144;53.002;6.506;2022-07-29T08:58:15;18.70;99.90
64715;DHT22;51144;53.002;6.506;2022-07-29T09:00:44;18.60;99.90
64715;DHT22;51144;53.002;6.506;2022-07-29T09:03:12;18.60;99.90
64715;DHT22;51144;53.002;6.506;2022-07-29T09:05:41;18.60;99.90
64715;DHT22;51144;53.002;6.506;2022-07-29T09:08:08;18.60;99.90
64715;DHT22;51144;53.002;6.506;2022-07-29T09:10:35;18.60;99.90
64715;DHT22;51144;53.002;6.506;2022-07-29T09:13:01;18.60;99.90
64715;DHT22;51144;53.002;6.506;2022-07-29T09:15:26;18.60;99.90
64715;DHT22;51144;53.002;6.506;2022-07-29T09:17:52;18.50;99.90
64715;DHT22;51144;53.002;6.506;2022-07-29T09:20:21;18.50;99.90
64715;DHT22;51144;53.002;6.506;2022-07-29T09:22:47;18.60;99.90
64715;DHT22;51144;53.002;6.506;2022-07-29T09:28:09;18.70;99.90
64715;DHT22;51144;53.002;6.506;2022-07-29T09:30:55;18.60;99.90
64715;DHT22;51144;53.002;6.506;2022-07-29T09:33:24;18.60;99.90
64715;DHT22;51144;53.002;6.506;2022-07-29T09:36:09;18.60;99.90
64715;DHT22;51144;53.002;6.506;2022-07-29T09:38:35;18.60;99.90
64715;DHT22;51144;53.002;6.506;2022-07-29T09:41:03;18.70;99.90
64715;DHT22;51144;53.002;6.506;2022-07-29T09:43:29;18.80;99.90
64715;DHT22;51144;53.002;6.506;2022-07-29T09:45:55;18.80;99.90
64715;DHT22;51144;53.002;6.506;2022-07-29T09:48:22;18.80;99.90
64715;DHT22;51144;53.002;6.506;2022-07-29T09:50:51;18.80;99.90
64715;DHT22;51144;53.002;6.506;2022-07-29T09:53:36;18.70;99.90
64715;DHT22;51144;53.002;6.506;2022-07-29T09:56:09;18.70;99.90
64715;DHT22;51144;53.002;6.506;2022-07-29T09:58:36;18.60;99.90
64715;DHT22;51144;53.002;6.506;2022-07-29T10:01:01;18.60;99.90
64715;DHT22;51144;53.002;6.506;2022-07-29T10:03:27;18.60;99.90
64715;DHT22;51144;53.002;6.506;2022-07-29T10:06:10;18.60;99.90
64715;DHT22;51144;53.002;6.506;2022-07-29T10:08:36;18.70;99.90
64715;DHT22;51144;53.002;6.506;2022-07-29T10:11:13;18.70;99.90
64715;DHT22;51144;53.002;6.506;2022-07-29T10:13:40;18.70;99.90
64715;DHT22;51144;53.002;6.506;2022-07-29T10:16:06;18.80;99.90
64715;DHT22;51144;53.002;6.506;2022-07-29T10:18:32;18.80;99.90
64715;DHT22;51144;53.002;6.506;2022-07-29T10:20:58;18.90;99.90
64715;DHT22;51144;53.002;6.506;2022-07-29T10:23:30;19.00;99.90
64715;DHT22;51144;53.002;6.506;2022-07-29T10:25:56;19.10;99.90
64715;DHT22;51144;53.002;6.506;2022-07-29T10:28:21;19.20;99.90
64715;DHT22;51144;53.002;6.506;2022-07-29T10:30:50;19.20;99.90
64715;DHT22;51144;53.002;6.506;2022-07-29T10:33:42;19.20;99.90
64715;DHT22;51144;53.002;6.506;2022-07-29T10:36:32;19.30;99.90
64715;DHT22;51144;53.002;6.506;2022-07-29T10:39:40;19.40;99.90
64715;DHT22;51144;53.002;6.506;2022-07-29T10:42:20;19.50;99.90
64715;DHT22;51144;53.002;6.506;2022-07-29T10:44:48;19.70;99.90
64715;DHT22;51144;53.002;6.506;2022-07-29T10:47:25;19.80;99.90
64715;DHT22;51144;53.002;6.506;2022-07-29T10:50:00;19.80;99.90
64715;DHT22;51144;53.002;6.506;2022-07-29T10:55:33;20.20;99.90
64715;DHT22;51144;53.002;6.506;2022-07-29T10:58:21;20.30;99.90
64715;DHT22;51144;53.002;6.506;2022-07-29T11:00:50;20.50;99.90
64715;DHT22;51144;53.002;6.506;2022-07-29T11:03:47;20.40;99.90
64715;DHT22;51144;53.002;6.506;2022-07-29T11:06:13;20.50;99.90
64715;DHT22;51144;53.002;6.506;2022-07-29T11:08:40;20.50;99.90
64715;DHT22;51144;53.002;6.506;2022-07-29T11:16:13;20.90;99.90
64715;DHT22;51144;53.002;6.506;2022-07-29T11:21:37;21.10;99.90
64715;DHT22;51144;53.002;6.506;2022-07-29T11:24:14;21.20;99.90
64715;DHT22;51144;53.002;6.506;2022-07-29T11:26:40;21.40;99.90
64715;DHT22;51144;53.002;6.506;2022-07-29T11:29:16;21.40;99.90
64715;DHT22;51144;53.002;6.506;2022-07-29T11:31:46;21.50;99.90
64715;DHT22;51144;53.002;6.506;2022-07-29T11:34:30;21.40;99.90
64715;DHT22;51144;53.002;6.506;2022-07-29T11:39:33;21.30;99.90
64715;DHT22;51144;53.002;6.506;2022-07-29T11:50:14;21.40;99.90
64715;DHT22;51144;53.002;6.506;2022-07-29T11:52:46;21.50;99.90
64715;DHT22;51144;53.002;6.506;2022-07-29T11:55:21;21.60;99.90
64715;DHT22;51144;53.002;6.506;2022-07-29T11:57:56;21.60;99.90
64715;DHT22;51144;53.002;6.506;2022-07-29T12:00:34;21.70;99.90
64715;DHT22;51144;53.002;6.506;2022-07-29T12:03:06;21.70;99.90
64715;DHT22;51144;53.002;6.506;2022-07-29T12:05:40;21.80;99.90
64715;DHT22;51144;53.002;6.506;2022-07-29T12:08:20;21.80;99.90
64715;DHT22;51144;53.002;6.506;2022-07-29T12:10:51;22.00;99.90
64715;DHT22;51144;53.002;6.506;2022-07-29T12:13:18;22.10;99.90
64715;DHT22;51144;53.002;6.506;2022-07-29T12:15:56;22.20;99.90
64715;DHT22;51144;53.002;6.506;2022-07-29T12:18:26;22.30;99.90
64715;DHT22;51144;53.002;6.506;2022-07-29T12:21:00;22.40;99.90
64715;DHT22;51144;53.002;6.506;2022-07-29T12:23:29;22.50;99.90
64715;DHT22;51144;53.002;6.506;2022-07-29T12:25:55;22.60;99.90
64715;DHT22;51144;53.002;6.506;2022-07-29T12:28:21;22.70;99.80
64715;DHT22;51144;53.002;6.506;2022-07-29T12:30:50;22.80;99.90
64715;DHT22;51144;53.002;6.506;2022-07-29T12:35:44;23.00;99.90
64715;DHT22;51144;53.002;6.506;2022-07-29T12:38:11;23.20;99.90
64715;DHT22;51144;53.002;6.506;2022-07-29T12:40:37;23.20;98.80
64715;DHT22;51144;53.002;6.506;2022-07-29T12:45:35;23.40;98.70
64715;DHT22;51144;53.002;6.506;2022-07-29T12:48:01;23.50;99.30
64715;DHT22;51144;53.002;6.506;2022-07-29T12:50:26;23.50;99.20
64715;DHT22;51144;53.002;6.506;2022-07-29T12:52:52;23.40;96.50
64715;DHT22;51144;53.002;6.506;2022-07-29T12:55:47;23.40;98.10
64715;DHT22;51144;53.002;6.506;2022-07-29T12:58:35;23.30;97.60
64715;DHT22;51144;53.002;6.506;2022-07-29T13:01:13;23.40;97.30
64715;DHT22;51144;53.002;6.506;2022-07-29T13:14:09;23.70;98.00
64715;DHT22;51144;53.002;6.506;2022-07-29T13:16:35;23.70;98.00
64715;DHT22;51144;53.002;6.506;2022-07-29T13:19:10;23.80;97.70
64715;DHT22;51144;53.002;6.506;2022-07-29T13:21:36;23.80;96.20
64715;DHT22;51144;53.002;6.506;2022-07-29T13:24:03;23.70;96.50
64715;DHT22;51144;53.002;6.506;2022-07-29T13:26:29;23.70;97.20
64715;DHT22;51144;53.002;6.506;2022-07-29T13:28:57;23.80;98.10
64715;DHT22;51144;53.002;6.506;2022-07-29T13:31:23;23.70;96.90
64715;DHT22;51144;53.002;6.506;2022-07-29T13:33:51;23.60;97.00
64715;DHT22;51144;53.002;6.506;2022-07-29T13:36:17;23.50;96.80
64715;DHT22;51144;53.002;6.506;2022-07-29T13:38:43;23.50;96.80
64715;DHT22;51144;53.002;6.506;2022-07-29T13:41:08;23.50;96.90
64715;DHT22;51144;53.002;6.506;2022-07-29T13:43:34;23.50;97.80
64715;DHT22;51144;53.002;6.506;2022-07-29T13:46:00;23.50;97.70
64715;DHT22;51144;53.002;6.506;2022-07-29T13:48:25;23.50;97.90
64715;DHT22;51144;53.002;6.506;2022-07-29T13:50:51;23.60;96.90
64715;DHT22;51144;53.002;6.506;2022-07-29T13:53:16;23.60;97.00
64715;DHT22;51144;53.002;6.506;2022-07-29T13:55:42;23.70;95.90
64715;DHT22;51144;53.002;6.506;2022-07-29T13:58:08;23.70;96.80
64715;DHT22;51144;53.002;6.506;2022-07-29T14:00:33;23.70;95.70
64715;DHT22;51144;53.002;6.506;2022-07-29T14:02:59;23.80;95.70
64715;DHT22;51144;53.002;6.506;2022-07-29T14:05:25;23.70;95.60
64715;DHT22;51144;53.002;6.506;2022-07-29T14:07:50;23.70;96.20
64715;DHT22;51144;53.002;6.506;2022-07-29T14:10:16;23.60;96.80
64715;DHT22;51144;53.002;6.506;2022-07-29T14:12:41;23.60;95.90
64715;DHT22;51144;53.002;6.506;2022-07-29T14:15:07;23.70;95.90
64715;DHT22;51144;53.002;6.506;2022-07-29T14:17:33;23.70;95.70
64715;DHT22;51144;53.002;6.506;2022-07-29T14:19:59;23.70;95.50
64715;DHT22;51144;53.002;6.506;2022-07-29T14:22:25;23.70;96.60
64715;DHT22;51144;53.002;6.506;2022-07-29T14:24:50;23.80;95.90
64715;DHT22;51144;53.002;6.506;2022-07-29T14:27:16;23.80;96.40
64715;DHT22;51144;53.002;6.506;2022-07-29T14:29:42;23.80;95.90
64715;DHT22;51144;53.002;6.506;2022-07-29T14:32:09;23.80;96.30
64715;DHT22;51144;53.002;6.506;2022-07-29T14:34:36;23.90;96.50
64715;DHT22;51144;53.002;6.506;2022-07-29T14:37:02;24.00;96.40
64715;DHT22;51144;53.002;6.506;2022-07-29T14:39:30;23.90;96.80
64715;DHT22;51144;53.002;6.506;2022-07-29T14:41:56;23.90;97.00
64715;DHT22;51144;53.002;6.506;2022-07-29T14:44:21;23.90;96.60
64715;DHT22;51144;53.002;6.506;2022-07-29T14:46:47;23.90;96.20
64715;DHT22;51144;53.002;6.506;2022-07-29T14:49:12;23.90;96.00
64715;DHT22;51144;53.002;6.506;2022-07-29T14:51:38;23.80;96.30
64715;DHT22;51144;53.002;6.506;2022-07-29T14:54:03;23.90;96.10
64715;DHT22;51144;53.002;6.506;2022-07-29T14:56:29;23.80;95.60
64715;DHT22;51144;53.002;6.506;2022-07-29T14:58:56;23.80;95.90
64715;DHT22;51144;53.002;6.506;2022-07-29T15:01:22;23.80;95.50
64715;DHT22;51144;53.002;6.506;2022-07-29T15:03:48;23.80;96.30
64715;DHT22;51144;53.002;6.506;2022-07-29T15:06:14;23.80;95.70
64715;DHT22;51144;53.002;6.506;2022-07-29T15:08:39;23.70;95.60
64715;DHT22;51144;53.002;6.506;2022-07-29T15:11:05;23.70;95.50
64715;DHT22;51144;53.002;6.506;2022-07-29T15:13:30;23.70;95.30
64715;DHT22;51144;53.002;6.506;2022-07-29T15:15:56;23.70;96.00
64715;DHT22;51144;53.002;6.506;2022-07-29T15:18:21;23.70;95.80
64715;DHT22;51144;53.002;6.506;2022-07-29T15:20:47;23.70;94.90
64715;DHT22;51144;53.002;6.506;2022-07-29T15:23:12;23.80;95.40
64715;DHT22;51144;53.002;6.506;2022-07-29T15:25:41;23.80;95.50
64715;DHT22;51144;53.002;6.506;2022-07-29T15:28:06;23.90;94.10
64715;DHT22;51144;53.002;6.506;2022-07-29T15:30:34;23.90;95.30
64715;DHT22;51144;53.002;6.506;2022-07-29T15:33:02;24.00;94.10
64715;DHT22;51144;53.002;6.506;2022-07-29T15:35:31;23.90;94.20
64715;DHT22;51144;53.002;6.506;2022-07-29T15:37:56;24.00;94.30
64715;DHT22;51144;53.002;6.506;2022-07-29T15:40:22;24.10;95.10
64715;DHT22;51144;53.002;6.506;2022-07-29T15:42:47;24.10;94.90
64715;DHT22;51144;53.002;6.506;2022-07-29T15:45:13;24.10;94.50
64715;DHT22;51144;53.002;6.506;2022-07-29T15:47:38;24.20;93.40
64715;DHT22;51144;53.002;6.506;2022-07-29T15:50:04;24.20;94.40
64715;DHT22;51144;53.002;6.506;2022-07-29T15:52:31;24.10;94.40
64715;DHT22;51144;53.002;6.506;2022-07-29T15:54:57;24.10;94.50
64715;DHT22;51144;53.002;6.506;2022-07-29T15:57:23;24.10;94.20
64715;DHT22;51144;53.002;6.506;2022-07-29T15:59:49;24.20;95.00
64715;DHT22;51144;53.002;6.506;2022-07-29T16:02:14;24.20;95.00
64715;DHT22;51144;53.002;6.506;2022-07-29T16:04:40;24.20;94.30
64715;DHT22;51144;53.002;6.506;2022-07-29T16:07:05;24.30;94.20
64715;DHT22;51144;53.002;6.506;2022-07-29T16:09:31;24.20;94.90
64715;DHT22;51144;53.002;6.506;2022-07-29T16:11:59;24.10;94.30
64715;DHT22;51144;53.002;6.506;2022-07-29T16:14:25;24.00;94.50
64715;DHT22;51144;53.002;6.506;2022-07-29T16:16:51;24.00;94.80
64715;DHT22;51144;53.002;6.506;2022-07-29T16:19:16;24.00;94.60
64715;DHT22;51144;53.002;6.506;2022-07-29T16:21:42;24.00;95.00
64715;DHT22;51144;53.002;6.506;2022-07-29T16:24:08;24.00;95.10
64715;DHT22;51144;53.002;6.506;2022-07-29T16:26:34;24.10;95.00